sensor_id;sensor_type;location;lat;lon;timestamp;temperature;humidity
84739;DHT22;74969;44.836;-0.586;2024-03-25T00:00:10;9.90;66.10
84739;DHT22;74969;44.836;-0.586;2024-03-25T00:02:37;9.90;66.20
84739;DHT22;74969;44.836;-0.586;2024-03-25T00:05:04;9.80;66.50
84739;DHT22;74969;44.836;-0.586;2024-03-25T00:07:30;9.70;66.50
84739;DHT22;74969;44.836;-0.586;2024-03-25T00:09:56;9.70;66.90
84739;DHT22;74969;44.836;-0.586;2024-03-25T00:12:27;9.60;67.00
84739;DHT22;74969;44.836;-0.586;2024-03-25T00:14:53;9.70;66.60
84739;DHT22;74969;44.836;-0.586;2024-03-25T00:17:18;9.60;66.50
84739;DHT22;74969;44.836;-0.586;2024-03-25T00:19:46;9.60;66.60
84739;DHT22;74969;44.836;-0.586;2024-03-25T00:22:16;9.60;66.60
84739;DHT22;74969;44.836;-0.586;2024-03-25T00:24:42;9.60;66.70
84739;DHT22;74969;44.836;-0.586;2024-03-25T00:27:08;9.50;66.70
84739;DHT22;74969;44.836;-0.586;2024-03-25T00:29:33;9.40;67.00
84739;DHT22;74969;44.836;-0.586;2024-03-25T00:31:59;9.30;67.50
84739;DHT22;74969;44.836;-0.586;2024-03-25T00:34:25;9.30;67.70
84739;DHT22;74969;44.836;-0.586;2024-03-25T00:36:50;9.20;67.70
84739;DHT22;74969;44.836;-0.586;2024-03-25T00:39:16;9.20;67.90
84739;DHT22;74969;44.836;-0.586;2024-03-25T00:41:42;9.20;67.90
84739;DHT22;74969;44.836;-0.586;2024-03-25T00:44:08;9.20;67.80
84739;DHT22;74969;44.836;-0.586;2024-03-25T00:46:33;9.20;67.90
84739;DHT22;74969;44.836;-0.586;2024-03-25T00:48:59;9.20;67.80
84739;DHT22;74969;44.836;-0.586;2024-03-25T00:51:25;9.20;67.70
84739;DHT22;74969;44.836;-0.586;2024-03-25T00:53:50;9.20;67.80
84739;DHT22;74969;44.836;-0.586;2024-03-25T00:56:16;9.20;67.90
84739;DHT22;74969;44.836;-0.586;2024-03-25T00:58:42;9.10;67.90
84739;DHT22;74969;44.836;-0.586;2024-03-25T01:01:07;9.10;67.80
84739;DHT22;74969;44.836;-0.586;2024-03-25T01:03:33;9.20;67.80
84739;DHT22;74969;44.836;-0.586;2024-03-25T01:05:59;9.20;67.70
84739;DHT22;74969;44.836;-0.586;2024-03-25T01:08:25;9.20;67.80
84739;DHT22;74969;44.836;-0.586;2024-03-25T01:10:50;9.10;68.10
84739;DHT22;74969;44.836;-0.586;2024-03-25T01:13:16;9.10;68.20
84739;DHT22;74969;44.836;-0.586;2024-03-25T01:15:42;9.10;67.80
84739;DHT22;74969;44.836;-0.586;2024-03-25T01:18:07;9.10;67.70
84739;DHT22;74969;44.836;-0.586;2024-03-25T01:20:33;9.10;67.50
84739;DHT22;74969;44.836;-0.586;2024-03-25T01:22:59;9.10;67.70
84739;DHT22;74969;44.836;-0.586;2024-03-25T01:25:25;9.00;67.70
84739;DHT22;74969;44.836;-0.586;2024-03-25T01:27:51;9.00;67.90
84739;DHT22;74969;44.836;-0.586;2024-03-25T01:30:17;9.00;68.00
84739;DHT22;74969;44.836;-0.586;2024-03-25T01:32:44;9.00;68.10
84739;DHT22;74969;44.836;-0.586;2024-03-25T01:35:12;8.90;68.10
84739;DHT22;74969;44.836;-0.586;2024-03-25T01:37:37;8.90;68.30
84739;DHT22;74969;44.836;-0.586;2024-03-25T01:40:04;8.90;68.50
84739;DHT22;74969;44.836;-0.586;2024-03-25T01:42:30;8.90;68.40
84739;DHT22;74969;44.836;-0.586;2024-03-25T01:44:56;8.90;68.50
84739;DHT22;74969;44.836;-0.586;2024-03-25T01:47:22;8.90;68.50
84739;DHT22;74969;44.836;-0.586;2024-03-25T01:49:48;8.80;68.90
84739;DHT22;74969;44.836;-0.586;2024-03-25T01:52:15;8.80;69.20
84739;DHT22;74969;44.836;-0.586;2024-03-25T01:54:41;8.70;69.20
84739;DHT22;74969;44.836;-0.586;2024-03-25T01:57:07;8.70;69.40
84739;DHT22;74969;44.836;-0.586;2024-03-25T01:59:34;8.70;69.50
84739;DHT22;74969;44.836;-0.586;2024-03-25T02:02:01;8.70;69.70
84739;DHT22;74969;44.836;-0.586;2024-03-25T02:04:26;8.70;69.30
84739;DHT22;74969;44.836;-0.586;2024-03-25T02:06:53;8.70;69.50
84739;DHT22;74969;44.836;-0.586;2024-03-25T02:09:22;8.60;69.70
84739;DHT22;74969;44.836;-0.586;2024-03-25T02:11:49;8.60;69.80
84739;DHT22;74969;44.836;-0.586;2024-03-25T02:14:15;8.60;70.10
84739;DHT22;74969;44.836;-0.586;2024-03-25T02:16:42;8.60;70.20
84739;DHT22;74969;44.836;-0.586;2024-03-25T02:19:08;8.60;70.30
84739;DHT22;74969;44.836;-0.586;2024-03-25T02:21:36;8.50;70.50
84739;DHT22;74969;44.836;-0.586;2024-03-25T02:24:05;8.50;70.40
84739;DHT22;74969;44.836;-0.586;2024-03-25T02:26:34;8.50;70.60
84739;DHT22;74969;44.836;-0.586;2024-03-25T02:29:00;8.40;70.80
84739;DHT22;74969;44.836;-0.586;2024-03-25T02:31:27;8.30;70.90
84739;DHT22;74969;44.836;-0.586;2024-03-25T02:33:52;8.30;71.00
84739;DHT22;74969;44.836;-0.586;2024-03-25T02:36:18;8.30;71.00
84739;DHT22;74969;44.836;-0.586;2024-03-25T02:38:44;8.20;70.60
84739;DHT22;74969;44.836;-0.586;2024-03-25T02:41:10;8.20;70.10
84739;DHT22;74969;44.836;-0.586;2024-03-25T02:43:35;8.20;70.20
84739;DHT22;74969;44.836;-0.586;2024-03-25T02:46:01;8.20;70.00
84739;DHT22;74969;44.836;-0.586;2024-03-25T02:48:27;8.10;69.90
84739;DHT22;74969;44.836;-0.586;2024-03-25T02:50:52;8.10;69.60
84739;DHT22;74969;44.836;-0.586;2024-03-25T02:53:18;8.00;69.60
84739;DHT22;74969;44.836;-0.586;2024-03-25T02:55:44;8.00;69.90
84739;DHT22;74969;44.836;-0.586;2024-03-25T02:58:09;8.00;70.30
84739;DHT22;74969;44.836;-0.586;2024-03-25T03:00:35;7.90;70.20
84739;DHT22;74969;44.836;-0.586;2024-03-25T03:03:00;7.90;70.40
84739;DHT22;74969;44.836;-0.586;2024-03-25T03:05:27;7.90;70.10
84739;DHT22;74969;44.836;-0.586;2024-03-25T03:07:53;7.90;69.60
84739;DHT22;74969;44.836;-0.586;2024-03-25T03:10:18;7.80;69.50
84739;DHT22;74969;44.836;-0.586;2024-03-25T03:12:44;7.80;69.60
84739;DHT22;74969;44.836;-0.586;2024-03-25T03:15:10;7.80;69.60
84739;DHT22;74969;44.836;-0.586;2024-03-25T03:17:36;7.80;69.80
84739;DHT22;74969;44.836;-0.586;2024-03-25T03:20:02;7.70;69.60
84739;DHT22;74969;44.836;-0.586;2024-03-25T03:22:27;7.70;69.10
84739;DHT22;74969;44.836;-0.586;2024-03-25T03:24:53;7.70;68.90
84739;DHT22;74969;44.836;-0.586;2024-03-25T03:27:19;7.70;68.80
84739;DHT22;74969;44.836;-0.586;2024-03-25T03:29:44;7.60;69.00
84739;DHT22;74969;44.836;-0.586;2024-03-25T03:32:10;7.70;68.80
84739;DHT22;74969;44.836;-0.586;2024-03-25T03:34:36;7.60;68.30
84739;DHT22;74969;44.836;-0.586;2024-03-25T03:37:01;7.60;68.20
84739;DHT22;74969;44.836;-0.586;2024-03-25T03:39:27;7.50;68.10
84739;DHT22;74969;44.836;-0.586;2024-03-25T03:41:53;7.50;68.20
84739;DHT22;74969;44.836;-0.586;2024-03-25T03:44:18;7.50;68.50
84739;DHT22;74969;44.836;-0.586;2024-03-25T03:46:44;7.50;68.50
84739;DHT22;74969;44.836;-0.586;2024-03-25T03:49:10;7.50;68.00
84739;DHT22;74969;44.836;-0.586;2024-03-25T03:51:35;7.50;68.10
84739;DHT22;74969;44.836;-0.586;2024-03-25T03:54:01;7.50;68.20
84739;DHT22;74969;44.836;-0.586;2024-03-25T03:56:26;7.50;68.20
84739;DHT22;74969;44.836;-0.586;2024-03-25T03:58:52;7.50;68.40
84739;DHT22;74969;44.836;-0.586;2024-03-25T04:01:18;7.50;67.90
84739;DHT22;74969;44.836;-0.586;2024-03-25T04:03:44;7.50;68.10
84739;DHT22;74969;44.836;-0.586;2024-03-25T04:06:11;7.50;68.00
84739;DHT22;74969;44.836;-0.586;2024-03-25T04:08:41;7.50;68.10
84739;DHT22;74969;44.836;-0.586;2024-03-25T04:11:07;7.40;68.00
84739;DHT22;74969;44.836;-0.586;2024-03-25T04:13:33;7.40;68.40
84739;DHT22;74969;44.836;-0.586;2024-03-25T04:16:03;7.40;68.50
84739;DHT22;74969;44.836;-0.586;2024-03-25T04:18:30;7.40;68.30
84739;DHT22;74969;44.836;-0.586;2024-03-25T04:20:56;7.40;68.50
84739;DHT22;74969;44.836;-0.586;2024-03-25T04:23:22;7.40;68.40
84739;DHT22;74969;44.836;-0.586;2024-03-25T04:25:48;7.40;68.50
84739;DHT22;74969;44.836;-0.586;2024-03-25T04:28:14;7.40;68.70
84739;DHT22;74969;44.836;-0.586;2024-03-25T04:30:40;7.30;68.90
84739;DHT22;74969;44.836;-0.586;2024-03-25T04:33:06;7.30;69.10
84739;DHT22;74969;44.836;-0.586;2024-03-25T04:35:32;7.20;69.10
84739;DHT22;74969;44.836;-0.586;2024-03-25T04:37:57;7.10;69.30
84739;DHT22;74969;44.836;-0.586;2024-03-25T04:40:23;7.10;69.40
84739;DHT22;74969;44.836;-0.586;2024-03-25T04:42:49;7.10;69.10
84739;DHT22;74969;44.836;-0.586;2024-03-25T04:45:15;7.10;69.30
84739;DHT22;74969;44.836;-0.586;2024-03-25T04:47:40;7.10;69.10
84739;DHT22;74969;44.836;-0.586;2024-03-25T04:50:07;7.10;69.10
84739;DHT22;74969;44.836;-0.586;2024-03-25T04:52:33;7.10;68.80
84739;DHT22;74969;44.836;-0.586;2024-03-25T04:54:59;7.10;68.40
84739;DHT22;74969;44.836;-0.586;2024-03-25T04:57:24;7.20;68.20
84739;DHT22;74969;44.836;-0.586;2024-03-25T04:59:50;7.20;68.00
84739;DHT22;74969;44.836;-0.586;2024-03-25T05:02:16;7.20;67.90
84739;DHT22;74969;44.836;-0.586;2024-03-25T05:04:42;7.20;68.10
84739;DHT22;74969;44.836;-0.586;2024-03-25T05:07:07;7.20;67.90
84739;DHT22;74969;44.836;-0.586;2024-03-25T05:09:33;7.20;67.60
84739;DHT22;74969;44.836;-0.586;2024-03-25T05:11:59;7.20;67.60
84739;DHT22;74969;44.836;-0.586;2024-03-25T05:14:25;7.20;67.50
84739;DHT22;74969;44.836;-0.586;2024-03-25T05:16:50;7.20;67.50
84739;DHT22;74969;44.836;-0.586;2024-03-25T05:19:17;7.10;67.50
84739;DHT22;74969;44.836;-0.586;2024-03-25T05:21:44;7.10;67.30
84739;DHT22;74969;44.836;-0.586;2024-03-25T05:24:10;7.00;67.50
84739;DHT22;74969;44.836;-0.586;2024-03-25T05:26:35;7.00;67.80
84739;DHT22;74969;44.836;-0.586;2024-03-25T05:29:01;7.00;68.20
84739;DHT22;74969;44.836;-0.586;2024-03-25T05:31:28;6.90;68.20
84739;DHT22;74969;44.836;-0.586;2024-03-25T05:33:53;6.90;68.20
84739;DHT22;74969;44.836;-0.586;2024-03-25T05:36:19;6.90;68.40
84739;DHT22;74969;44.836;-0.586;2024-03-25T05:38:45;6.90;68.50
84739;DHT22;74969;44.836;-0.586;2024-03-25T05:41:11;6.80;68.70
84739;DHT22;74969;44.836;-0.586;2024-03-25T05:43:37;6.70;69.00
84739;DHT22;74969;44.836;-0.586;2024-03-25T05:46:03;6.70;69.20
84739;DHT22;74969;44.836;-0.586;2024-03-25T05:48:29;6.70;69.40
84739;DHT22;74969;44.836;-0.586;2024-03-25T05:51:04;6.70;69.20
84739;DHT22;74969;44.836;-0.586;2024-03-25T05:53:40;6.80;69.30
84739;DHT22;74969;44.836;-0.586;2024-03-25T05:56:06;6.80;69.40
84739;DHT22;74969;44.836;-0.586;2024-03-25T05:58:31;6.80;69.40
84739;DHT22;74969;44.836;-0.586;2024-03-25T06:00:57;6.80;69.60
84739;DHT22;74969;44.836;-0.586;2024-03-25T06:03:22;6.80;69.50
84739;DHT22;74969;44.836;-0.586;2024-03-25T06:05:48;6.80;69.60
84739;DHT22;74969;44.836;-0.586;2024-03-25T06:08:15;6.80;69.70
84739;DHT22;74969;44.836;-0.586;2024-03-25T06:10:47;6.80;69.80
84739;DHT22;74969;44.836;-0.586;2024-03-25T06:13:12;6.80;69.80
84739;DHT22;74969;44.836;-0.586;2024-03-25T06:15:38;6.90;69.90
84739;DHT22;74969;44.836;-0.586;2024-03-25T06:18:04;6.90;70.00
84739;DHT22;74969;44.836;-0.586;2024-03-25T06:20:29;6.90;70.10
84739;DHT22;74969;44.836;-0.586;2024-03-25T06:22:55;6.90;70.20
84739;DHT22;74969;44.836;-0.586;2024-03-25T06:25:21;7.00;70.20
84739;DHT22;74969;44.836;-0.586;2024-03-25T06:27:46;7.00;70.10
84739;DHT22;74969;44.836;-0.586;2024-03-25T06:30:12;7.10;70.10
84739;DHT22;74969;44.836;-0.586;2024-03-25T06:32:56;7.10;70.20
84739;DHT22;74969;44.836;-0.586;2024-03-25T06:35:44;7.10;70.40
84739;DHT22;74969;44.836;-0.586;2024-03-25T06:38:10;7.20;70.30
84739;DHT22;74969;44.836;-0.586;2024-03-25T06:40:37;7.20;70.40
84739;DHT22;74969;44.836;-0.586;2024-03-25T06:43:03;7.30;70.40
84739;DHT22;74969;44.836;-0.586;2024-03-25T06:45:29;7.30;70.50
84739;DHT22;74969;44.836;-0.586;2024-03-25T06:47:56;7.40;70.40
84739;DHT22;74969;44.836;-0.586;2024-03-25T06:50:23;7.40;70.30
84739;DHT22;74969;44.836;-0.586;2024-03-25T06:52:48;7.40;70.40
84739;DHT22;74969;44.836;-0.586;2024-03-25T06:55:15;7.50;70.80
84739;DHT22;74969;44.836;-0.586;2024-03-25T06:57:40;7.60;70.30
84739;DHT22;74969;44.836;-0.586;2024-03-25T07:00:06;7.60;70.20
84739;DHT22;74969;44.836;-0.586;2024-03-25T07:02:41;7.60;70.20
84739;DHT22;74969;44.836;-0.586;2024-03-25T07:05:07;7.60;70.40
84739;DHT22;74969;44.836;-0.586;2024-03-25T07:07:33;7.50;70.70
84739;DHT22;74969;44.836;-0.586;2024-03-25T07:10:02;7.50;70.80
84739;DHT22;74969;44.836;-0.586;2024-03-25T07:12:28;7.60;71.00
84739;DHT22;74969;44.836;-0.586;2024-03-25T07:14:54;7.60;70.90
84739;DHT22;74969;44.836;-0.586;2024-03-25T07:17:19;7.60;70.90
84739;DHT22;74969;44.836;-0.586;2024-03-25T07:19:47;7.60;71.10
84739;DHT22;74969;44.836;-0.586;2024-03-25T07:22:13;7.60;70.80
84739;DHT22;74969;44.836;-0.586;2024-03-25T07:24:38;7.70;71.00
84739;DHT22;74969;44.836;-0.586;2024-03-25T07:27:04;7.70;71.00
84739;DHT22;74969;44.836;-0.586;2024-03-25T07:29:31;7.70;71.00
84739;DHT22;74969;44.836;-0.586;2024-03-25T07:31:56;7.70;71.00
84739;DHT22;74969;44.836;-0.586;2024-03-25T07:34:22;7.80;70.90
84739;DHT22;74969;44.836;-0.586;2024-03-25T07:36:48;7.80;70.70
84739;DHT22;74969;44.836;-0.586;2024-03-25T07:39:14;7.80;70.70
84739;DHT22;74969;44.836;-0.586;2024-03-25T07:41:40;7.80;70.70
84739;DHT22;74969;44.836;-0.586;2024-03-25T07:44:06;7.90;70.80
84739;DHT22;74969;44.836;-0.586;2024-03-25T07:46:31;7.90;70.60
84739;DHT22;74969;44.836;-0.586;2024-03-25T07:48:57;8.00;70.50
84739;DHT22;74969;44.836;-0.586;2024-03-25T07:51:23;8.00;70.30
84739;DHT22;74969;44.836;-0.586;2024-03-25T07:53:49;8.10;70.40
84739;DHT22;74969;44.836;-0.586;2024-03-25T07:56:16;8.10;70.10
84739;DHT22;74969;44.836;-0.586;2024-03-25T07:58:41;8.20;69.90
84739;DHT22;74969;44.836;-0.586;2024-03-25T08:01:07;8.30;69.40
84739;DHT22;74969;44.836;-0.586;2024-03-25T08:03:33;8.30;69.40
84739;DHT22;74969;44.836;-0.586;2024-03-25T08:05:59;8.40;69.20
84739;DHT22;74969;44.836;-0.586;2024-03-25T08:08:25;8.40;68.60
84739;DHT22;74969;44.836;-0.586;2024-03-25T08:10:50;8.40;68.30
84739;DHT22;74969;44.836;-0.586;2024-03-25T08:13:18;8.50;68.50
84739;DHT22;74969;44.836;-0.586;2024-03-25T08:15:45;8.60;68.20
84739;DHT22;74969;44.836;-0.586;2024-03-25T08:18:11;8.70;67.80
84739;DHT22;74969;44.836;-0.586;2024-03-25T08:20:37;8.70;67.50
84739;DHT22;74969;44.836;-0.586;2024-03-25T08:23:03;8.70;67.60
84739;DHT22;74969;44.836;-0.586;2024-03-25T08:25:29;8.80;67.40
84739;DHT22;74969;44.836;-0.586;2024-03-25T08:27:55;8.90;66.90
84739;DHT22;74969;44.836;-0.586;2024-03-25T08:30:20;9.00;66.70
84739;DHT22;74969;44.836;-0.586;2024-03-25T08:32:46;9.00;65.70
84739;DHT22;74969;44.836;-0.586;2024-03-25T08:35:12;9.00;65.80
84739;DHT22;74969;44.836;-0.586;2024-03-25T08:37:38;9.00;65.20
84739;DHT22;74969;44.836;-0.586;2024-03-25T08:40:04;9.00;65.20
84739;DHT22;74969;44.836;-0.586;2024-03-25T08:42:30;9.00;65.30
84739;DHT22;74969;44.836;-0.586;2024-03-25T08:44:56;9.10;65.00
84739;DHT22;74969;44.836;-0.586;2024-03-25T08:47:22;9.20;65.00
84739;DHT22;74969;44.836;-0.586;2024-03-25T08:49:48;9.20;64.20
84739;DHT22;74969;44.836;-0.586;2024-03-25T08:52:13;9.30;64.10
84739;DHT22;74969;44.836;-0.586;2024-03-25T08:54:39;9.30;63.60
84739;DHT22;74969;44.836;-0.586;2024-03-25T08:57:05;9.40;63.40
84739;DHT22;74969;44.836;-0.586;2024-03-25T08:59:30;9.50;63.20
84739;DHT22;74969;44.836;-0.586;2024-03-25T09:01:56;9.50;62.10
84739;DHT22;74969;44.836;-0.586;2024-03-25T09:04:21;9.60;62.70
84739;DHT22;74969;44.836;-0.586;2024-03-25T09:06:48;9.60;62.40
84739;DHT22;74969;44.836;-0.586;2024-03-25T09:09:13;9.80;62.10
84739;DHT22;74969;44.836;-0.586;2024-03-25T09:11:58;9.80;62.10
84739;DHT22;74969;44.836;-0.586;2024-03-25T09:14:24;10.00;61.40
84739;DHT22;74969;44.836;-0.586;2024-03-25T09:16:50;10.00;61.40
84739;DHT22;74969;44.836;-0.586;2024-03-25T09:19:15;10.10;61.30
84739;DHT22;74969;44.836;-0.586;2024-03-25T09:21:41;10.20;61.20
84739;DHT22;74969;44.836;-0.586;2024-03-25T09:24:07;10.20;61.30
84739;DHT22;74969;44.836;-0.586;2024-03-25T09:26:33;10.20;61.10
84739;DHT22;74969;44.836;-0.586;2024-03-25T09:28:59;10.30;61.40
84739;DHT22;74969;44.836;-0.586;2024-03-25T09:31:25;10.60;61.10
84739;DHT22;74969;44.836;-0.586;2024-03-25T09:33:50;10.60;60.00
84739;DHT22;74969;44.836;-0.586;2024-03-25T09:36:16;10.50;60.40
84739;DHT22;74969;44.836;-0.586;2024-03-25T09:38:41;10.70;60.10
84739;DHT22;74969;44.836;-0.586;2024-03-25T09:41:08;10.80;60.20
84739;DHT22;74969;44.836;-0.586;2024-03-25T09:43:48;10.80;60.10
84739;DHT22;74969;44.836;-0.586;2024-03-25T09:46:17;10.80;60.00
84739;DHT22;74969;44.836;-0.586;2024-03-25T09:48:43;10.90;60.00
84739;DHT22;74969;44.836;-0.586;2024-03-25T09:51:10;11.00;59.70
84739;DHT22;74969;44.836;-0.586;2024-03-25T09:53:35;11.00;59.40
84739;DHT22;74969;44.836;-0.586;2024-03-25T09:56:01;11.00;59.70
84739;DHT22;74969;44.836;-0.586;2024-03-25T09:58:27;10.90;59.80
84739;DHT22;74969;44.836;-0.586;2024-03-25T10:00:54;11.00;59.50
84739;DHT22;74969;44.836;-0.586;2024-03-25T10:03:21;11.00;59.40
84739;DHT22;74969;44.836;-0.586;2024-03-25T10:05:47;11.10;59.30
84739;DHT22;74969;44.836;-0.586;2024-03-25T10:08:12;11.20;59.10
84739;DHT22;74969;44.836;-0.586;2024-03-25T10:10:38;11.20;58.40
84739;DHT22;74969;44.836;-0.586;2024-03-25T10:13:04;11.30;58.50
84739;DHT22;74969;44.836;-0.586;2024-03-25T10:15:30;11.30;58.40
84739;DHT22;74969;44.836;-0.586;2024-03-25T10:17:56;11.30;58.00
84739;DHT22;74969;44.836;-0.586;2024-03-25T10:20:22;11.30;57.80
84739;DHT22;74969;44.836;-0.586;2024-03-25T10:22:48;11.30;57.70
84739;DHT22;74969;44.836;-0.586;2024-03-25T10:25:30;11.40;57.90
84739;DHT22;74969;44.836;-0.586;2024-03-25T10:28:01;11.70;57.50
84739;DHT22;74969;44.836;-0.586;2024-03-25T10:30:27;11.90;56.70
84739;DHT22;74969;44.836;-0.586;2024-03-25T10:33:03;11.90;56.20
84739;DHT22;74969;44.836;-0.586;2024-03-25T10:35:30;11.80;56.80
84739;DHT22;74969;44.836;-0.586;2024-03-25T10:38:07;11.80;57.20
84739;DHT22;74969;44.836;-0.586;2024-03-25T10:40:38;11.90;57.00
84739;DHT22;74969;44.836;-0.586;2024-03-25T10:43:05;12.00;56.80
84739;DHT22;74969;44.836;-0.586;2024-03-25T10:45:37;12.00;56.80
84739;DHT22;74969;44.836;-0.586;2024-03-25T10:48:39;11.80;57.20
84739;DHT22;74969;44.836;-0.586;2024-03-25T10:51:05;11.80;57.40
84739;DHT22;74969;44.836;-0.586;2024-03-25T10:53:32;12.00;57.80
84739;DHT22;74969;44.836;-0.586;2024-03-25T10:56:01;12.10;57.30
84739;DHT22;74969;44.836;-0.586;2024-03-25T10:58:27;12.20;57.20
84739;DHT22;74969;44.836;-0.586;2024-03-25T11:00:55;12.40;57.30
84739;DHT22;74969;44.836;-0.586;2024-03-25T11:03:22;12.40;56.70
84739;DHT22;74969;44.836;-0.586;2024-03-25T11:05:48;12.30;56.70
84739;DHT22;74969;44.836;-0.586;2024-03-25T11:08:16;12.50;56.50
84739;DHT22;74969;44.836;-0.586;2024-03-25T11:10:43;12.50;56.90
84739;DHT22;74969;44.836;-0.586;2024-03-25T11:13:13;12.70;57.10
84739;DHT22;74969;44.836;-0.586;2024-03-25T11:15:47;13.00;56.50
84739;DHT22;74969;44.836;-0.586;2024-03-25T11:18:22;13.30;55.60
84739;DHT22;74969;44.836;-0.586;2024-03-25T11:21:00;13.40;55.40
84739;DHT22;74969;44.836;-0.586;2024-03-25T11:23:26;13.50;55.10
84739;DHT22;74969;44.836;-0.586;2024-03-25T11:25:55;13.30;54.70
84739;DHT22;74969;44.836;-0.586;2024-03-25T11:28:27;13.20;55.60
84739;DHT22;74969;44.836;-0.586;2024-03-25T11:30:55;13.20;55.20
84739;DHT22;74969;44.836;-0.586;2024-03-25T11:33:21;13.10;55.40
84739;DHT22;74969;44.836;-0.586;2024-03-25T11:35:49;13.10;55.60
84739;DHT22;74969;44.836;-0.586;2024-03-25T11:38:14;13.20;55.40
84739;DHT22;74969;44.836;-0.586;2024-03-25T11:40:43;13.10;55.80
84739;DHT22;74969;44.836;-0.586;2024-03-25T11:43:09;13.20;54.40
84739;DHT22;74969;44.836;-0.586;2024-03-25T11:45:36;13.30;54.10
84739;DHT22;74969;44.836;-0.586;2024-03-25T11:48:02;13.30;54.10
84739;DHT22;74969;44.836;-0.586;2024-03-25T11:50:28;13.30;53.20
84739;DHT22;74969;44.836;-0.586;2024-03-25T11:52:53;13.30;53.60
84739;DHT22;74969;44.836;-0.586;2024-03-25T11:55:19;13.30;53.20
84739;DHT22;74969;44.836;-0.586;2024-03-25T11:57:45;13.10;53.70
84739;DHT22;74969;44.836;-0.586;2024-03-25T12:00:11;13.10;54.40
84739;DHT22;74969;44.836;-0.586;2024-03-25T12:02:43;13.10;54.10
84739;DHT22;74969;44.836;-0.586;2024-03-25T12:05:11;13.10;54.40
84739;DHT22;74969;44.836;-0.586;2024-03-25T12:07:36;13.30;54.70
84739;DHT22;74969;44.836;-0.586;2024-03-25T12:10:03;13.60;54.20
84739;DHT22;74969;44.836;-0.586;2024-03-25T12:12:47;13.70;53.60
84739;DHT22;74969;44.836;-0.586;2024-03-25T12:15:13;13.50;53.50
84739;DHT22;74969;44.836;-0.586;2024-03-25T12:17:39;13.50;54.00
84739;DHT22;74969;44.836;-0.586;2024-03-25T12:20:06;13.70;54.20
84739;DHT22;74969;44.836;-0.586;2024-03-25T12:22:39;13.80;53.30
84739;DHT22;74969;44.836;-0.586;2024-03-25T12:25:07;13.40;54.30
84739;DHT22;74969;44.836;-0.586;2024-03-25T12:27:35;13.30;54.60
84739;DHT22;74969;44.836;-0.586;2024-03-25T12:30:10;13.30;54.80
84739;DHT22;74969;44.836;-0.586;2024-03-25T12:32:40;13.10;55.30
84739;DHT22;74969;44.836;-0.586;2024-03-25T12:35:11;13.10;55.40
84739;DHT22;74969;44.836;-0.586;2024-03-25T12:37:40;13.30;55.50
84739;DHT22;74969;44.836;-0.586;2024-03-25T12:40:07;13.50;55.20
84739;DHT22;74969;44.836;-0.586;2024-03-25T12:42:35;13.60;54.60
84739;DHT22;74969;44.836;-0.586;2024-03-25T12:45:00;13.70;54.80
84739;DHT22;74969;44.836;-0.586;2024-03-25T12:47:26;13.90;54.70
84739;DHT22;74969;44.836;-0.586;2024-03-25T12:49:52;14.00;54.20
84739;DHT22;74969;44.836;-0.586;2024-03-25T12:52:18;14.10;53.80
84739;DHT22;74969;44.836;-0.586;2024-03-25T12:54:44;14.30;53.70
84739;DHT22;74969;44.836;-0.586;2024-03-25T12:57:11;14.20;53.70
84739;DHT22;74969;44.836;-0.586;2024-03-25T12:59:37;14.10;53.70
84739;DHT22;74969;44.836;-0.586;2024-03-25T13:02:02;14.00;53.80
84739;DHT22;74969;44.836;-0.586;2024-03-25T13:04:28;13.80;54.10
84739;DHT22;74969;44.836;-0.586;2024-03-25T13:06:54;13.80;54.30
84739;DHT22;74969;44.836;-0.586;2024-03-25T13:09:20;14.00;54.50
84739;DHT22;74969;44.836;-0.586;2024-03-25T13:11:45;14.20;54.20
84739;DHT22;74969;44.836;-0.586;2024-03-25T13:14:12;14.20;53.60
84739;DHT22;74969;44.836;-0.586;2024-03-25T13:16:40;14.10;54.10
84739;DHT22;74969;44.836;-0.586;2024-03-25T13:19:06;14.20;53.40
84739;DHT22;74969;44.836;-0.586;2024-03-25T13:21:33;14.20;53.50
84739;DHT22;74969;44.836;-0.586;2024-03-25T13:23:58;14.20;53.40
84739;DHT22;74969;44.836;-0.586;2024-03-25T13:26:24;14.30;53.60
84739;DHT22;74969;44.836;-0.586;2024-03-25T13:28:51;14.50;53.20
84739;DHT22;74969;44.836;-0.586;2024-03-25T13:31:17;14.60;53.00
84739;DHT22;74969;44.836;-0.586;2024-03-25T13:33:43;14.60;53.10
84739;DHT22;74969;44.836;-0.586;2024-03-25T13:36:08;14.70;52.70
84739;DHT22;74969;44.836;-0.586;2024-03-25T13:38:34;14.80;52.90
84739;DHT22;74969;44.836;-0.586;2024-03-25T13:41:01;15.10;52.00
84739;DHT22;74969;44.836;-0.586;2024-03-25T13:43:28;15.20;51.70
84739;DHT22;74969;44.836;-0.586;2024-03-25T13:45:53;15.20;51.90
84739;DHT22;74969;44.836;-0.586;2024-03-25T13:48:19;15.20;51.30
84739;DHT22;74969;44.836;-0.586;2024-03-25T13:50:45;15.10;51.50
84739;DHT22;74969;44.836;-0.586;2024-03-25T13:53:11;15.10;51.70
84739;DHT22;74969;44.836;-0.586;2024-03-25T13:55:36;15.10;51.60
84739;DHT22;74969;44.836;-0.586;2024-03-25T13:58:02;15.00;51.80
84739;DHT22;74969;44.836;-0.586;2024-03-25T14:00:29;15.00;52.10
84739;DHT22;74969;44.836;-0.586;2024-03-25T14:02:55;15.00;52.10
84739;DHT22;74969;44.836;-0.586;2024-03-25T14:05:21;15.10;52.00
84739;DHT22;74969;44.836;-0.586;2024-03-25T14:07:49;15.20;52.20
84739;DHT22;74969;44.836;-0.586;2024-03-25T14:10:15;15.20;52.20
84739;DHT22;74969;44.836;-0.586;2024-03-25T14:12:41;15.30;51.70
84739;DHT22;74969;44.836;-0.586;2024-03-25T14:15:07;15.30;52.10
84739;DHT22;74969;44.836;-0.586;2024-03-25T14:17:33;15.50;52.00
84739;DHT22;74969;44.836;-0.586;2024-03-25T14:19:59;15.60;51.40
84739;DHT22;74969;44.836;-0.586;2024-03-25T14:22:25;15.80;51.50
84739;DHT22;74969;44.836;-0.586;2024-03-25T14:24:50;15.90;51.50
84739;DHT22;74969;44.836;-0.586;2024-03-25T14:27:22;16.00;50.90
84739;DHT22;74969;44.836;-0.586;2024-03-25T14:29:48;15.90;50.50
84739;DHT22;74969;44.836;-0.586;2024-03-25T14:32:13;15.70;51.00
84739;DHT22;74969;44.836;-0.586;2024-03-25T14:34:39;15.50;51.40
84739;DHT22;74969;44.836;-0.586;2024-03-25T14:37:05;15.50;51.40
84739;DHT22;74969;44.836;-0.586;2024-03-25T14:39:31;15.50;51.30
84739;DHT22;74969;44.836;-0.586;2024-03-25T14:41:57;15.40;51.50
84739;DHT22;74969;44.836;-0.586;2024-03-25T14:44:22;15.40;51.50
84739;DHT22;74969;44.836;-0.586;2024-03-25T14:46:48;15.40;51.70
84739;DHT22;74969;44.836;-0.586;2024-03-25T14:49:14;15.50;51.60
84739;DHT22;74969;44.836;-0.586;2024-03-25T14:51:40;15.60;51.80
84739;DHT22;74969;44.836;-0.586;2024-03-25T14:54:06;15.70;51.40
84739;DHT22;74969;44.836;-0.586;2024-03-25T14:56:32;15.70;51.30
84739;DHT22;74969;44.836;-0.586;2024-03-25T14:58:58;15.70;51.40
84739;DHT22;74969;44.836;-0.586;2024-03-25T15:01:24;15.70;51.50
84739;DHT22;74969;44.836;-0.586;2024-03-25T15:03:50;15.80;51.50
84739;DHT22;74969;44.836;-0.586;2024-03-25T15:06:15;15.70;51.70
84739;DHT22;74969;44.836;-0.586;2024-03-25T15:08:41;15.70;51.90
84739;DHT22;74969;44.836;-0.586;2024-03-25T15:11:09;15.70;51.60
84739;DHT22;74969;44.836;-0.586;2024-03-25T15:13:36;15.70;51.80
84739;DHT22;74969;44.836;-0.586;2024-03-25T15:16:05;15.60;51.90
84739;DHT22;74969;44.836;-0.586;2024-03-25T15:18:31;15.60;52.00
84739;DHT22;74969;44.836;-0.586;2024-03-25T15:21:03;15.60;52.20